createdAt,value
2019-03-15T00:04:30.720Z,80.00
2019-03-15T00:09:35.448Z,80.00
2019-03-15T00:14:41.736Z,80.20
2019-03-15T00:19:45.051Z,80.40
2019-03-15T00:24:48.372Z,80.70
2019-03-15T00:29:52.826Z,81.10
2019-03-15T00:35:02.710Z,81.60
2019-03-15T00:40:12.280Z,81.60
2019-03-15T00:45:17.285Z,81.70
2019-03-15T00:50:21.164Z,81.80
2019-03-15T00:55:25.910Z,81.90
2019-03-15T01:00:31.087Z,82.10
2019-03-15T01:05:35.112Z,82.20
2019-03-15T01:10:41.283Z,82.40
2019-03-15T01:15:48.082Z,82.70
2019-03-15T01:20:51.859Z,82.80
2019-03-15T01:25:57.584Z,83.80
2019-03-15T01:31:01.643Z,83.50
2019-03-15T01:36:08.014Z,84.10
2019-03-15T01:41:13.144Z,84.60
2019-03-15T01:46:21.790Z,85.30
2019-03-15T01:51:26.401Z,85.90
2019-03-15T01:56:30.020Z,86.30
2019-03-15T02:01:40.225Z,86.40
2019-03-15T02:06:45.831Z,86.40
2019-03-15T02:11:51.609Z,86.40
2019-03-15T02:16:57.225Z,86.30
2019-03-15T02:22:06.498Z,86.10
2019-03-15T02:27:09.869Z,85.90
2019-03-15T02:32:13.948Z,85.80
2019-03-15T02:37:18.574Z,85.60
2019-03-15T02:42:22.096Z,86.00
2019-03-15T02:47:26.726Z,85.30
2019-03-15T02:52:30.060Z,85.10
2019-03-15T02:57:33.415Z,85.00
2019-03-15T03:02:39.213Z,84.70
2019-03-15T03:07:43.101Z,84.50
2019-03-15T03:12:46.437Z,84.30
2019-03-15T03:17:49.737Z,84.20
2019-03-15T03:22:53.118Z,84.10
2019-03-15T03:27:56.475Z,84.20
2019-03-15T03:32:59.791Z,84.20
2019-03-15T03:38:04.205Z,84.40
2019-03-15T03:43:07.533Z,84.40
2019-03-15T03:48:15.953Z,84.50
2019-03-15T03:53:19.610Z,84.70
2019-03-15T03:58:22.997Z,84.80
2019-03-15T04:03:26.357Z,84.70
2019-03-15T04:08:29.709Z,84.90
2019-03-15T04:13:33.060Z,84.80
2019-03-15T04:18:37.270Z,84.70
2019-03-15T04:23:41.652Z,84.70
2019-03-15T04:28:46.104Z,84.80
2019-03-15T04:33:49.527Z,85.00
2019-03-15T04:38:52.841Z,85.10
2019-03-15T04:43:56.145Z,85.30
2019-03-15T04:48:59.442Z,85.50
2019-03-15T04:54:05.494Z,85.80
2019-03-15T04:59:08.905Z,86.20
2019-03-15T05:04:13.437Z,85.80
2019-03-15T05:09:16.722Z,86.70
2019-03-15T05:14:20.076Z,87.20
2019-03-15T05:19:25.126Z,87.60
2019-03-15T05:24:28.414Z,88.10
2019-03-15T05:29:32.088Z,88.30
2019-03-15T05:34:35.400Z,88.60
2019-03-15T05:39:38.753Z,88.80
2019-03-15T05:44:42.136Z,88.90
2019-03-15T05:49:45.582Z,89.00
2019-03-15T05:54:50.492Z,89.00
2019-03-15T05:59:53.887Z,89.30
2019-03-15T06:04:57.185Z,89.40
2019-03-15T06:10:01.582Z,89.40
2019-03-15T06:15:08.509Z,89.50
2019-03-15T06:20:14.178Z,90.10
2019-03-15T06:25:17.954Z,90.50
2019-03-15T06:30:21.339Z,90.70
2019-03-15T06:35:24.709Z,90.90
2019-03-15T06:40:28.023Z,91.10
2019-03-15T06:45:32.915Z,91.10
2019-03-15T06:50:36.281Z,91.20
2019-03-15T06:55:39.678Z,91.30
2019-03-15T07:00:43.186Z,91.60
2019-03-15T07:05:47.425Z,91.50
2019-03-15T07:10:51.529Z,91.60
2019-03-15T07:15:54.932Z,91.60
2019-03-15T07:20:58.367Z,91.40
2019-03-15T07:26:01.793Z,91.10
2019-03-15T07:31:05.186Z,90.80
2019-03-15T07:36:08.497Z,90.70
2019-03-15T07:41:12.159Z,90.90
2019-03-15T07:46:15.947Z,90.80
2019-03-15T07:51:19.265Z,90.60
2019-03-15T07:56:22.849Z,90.50
2019-03-15T08:01:26.265Z,90.30
2019-03-15T08:06:34.870Z,89.80
2019-03-15T08:11:35.481Z,89.70
2019-03-15T08:16:39.236Z,89.30
2019-03-15T08:21:42.598Z,88.60
2019-03-15T08:26:48.112Z,88.70
2019-03-15T08:31:52.633Z,88.80
2019-03-15T08:36:56.357Z,88.60
2019-03-15T08:41:59.879Z,87.70
2019-03-15T08:47:06.542Z,87.80
2019-03-15T08:52:11.438Z,87.30
2019-03-15T08:57:14.785Z,87.20
2019-03-15T09:02:20.579Z,86.10
2019-03-15T09:07:24.808Z,84.70
2019-03-15T09:12:32.418Z,84.70
2019-03-15T09:17:36.605Z,85.10
2019-03-15T09:22:40.879Z,86.20
2019-03-15T09:27:45.619Z,85.70
2019-03-15T09:32:49.277Z,85.60
2019-03-15T09:37:53.841Z,85.50
2019-03-15T09:43:00.007Z,85.80
2019-03-15T09:48:03.906Z,85.50
2019-03-15T09:53:07.538Z,86.20
2019-03-15T09:58:11.985Z,85.50
2019-03-15T10:03:22.072Z,85.30
2019-03-15T10:08:23.332Z,84.50
2019-03-15T10:13:27.156Z,84.20
2019-03-15T10:18:32.178Z,85.00
2019-03-15T10:24:06.206Z,86.40
2019-03-15T10:29:15.821Z,86.60
2019-03-15T10:34:16.138Z,85.80
2019-03-15T10:39:19.582Z,84.60
2019-03-15T10:44:23.549Z,82.80
2019-03-15T10:49:30.751Z,82.70
2019-03-15T10:54:33.161Z,82.00
2019-03-15T11:04:52.745Z,77.10
2019-03-15T11:09:59.070Z,73.20
2019-03-15T11:15:15.917Z,76.40
2019-03-15T11:20:21.782Z,77.60
2019-03-15T11:25:32.415Z,79.70
2019-03-15T11:30:46.026Z,80.10
2019-03-15T11:35:50.947Z,76.10
2019-03-15T11:40:54.773Z,67.80
2019-03-15T11:45:58.982Z,64.30
2019-03-15T11:51:04.549Z,60.40
2019-03-15T11:56:07.923Z,59.20
2019-03-15T12:01:13.170Z,60.00
2019-03-15T12:06:16.815Z,63.80
2019-03-15T12:11:21.098Z,65.20
2019-03-15T12:16:24.486Z,67.80
2019-03-15T12:21:29.049Z,69.80
2019-03-15T12:26:40.153Z,68.50
2019-03-15T12:31:38.435Z,65.90
2019-03-15T12:36:43.345Z,65.60
2019-03-15T12:41:46.865Z,64.30
2019-03-15T12:52:14.162Z,47.90
2019-03-15T12:57:18.852Z,40.30
2019-03-15T13:02:22.787Z,46.40
2019-03-15T13:07:26.447Z,52.60
2019-03-15T13:12:31.577Z,54.10
2019-03-15T13:17:34.977Z,48.20
2019-03-15T13:22:39.199Z,51.50
2019-03-15T13:27:42.673Z,53.80
2019-03-15T13:32:46.133Z,44.50
2019-03-15T13:37:50.145Z,33.90
2019-03-15T13:42:53.465Z,28.80
2019-03-15T13:47:57.640Z,31.70
2019-03-15T13:53:01.014Z,40.50
2019-03-15T13:58:04.463Z,47.10
2019-03-15T14:03:07.984Z,52.70
2019-03-15T14:08:12.239Z,59.60
2019-03-15T14:13:16.234Z,63.20
2019-03-15T14:18:21.530Z,65.80
2019-03-15T14:23:29.120Z,67.60
2019-03-15T14:28:32.429Z,69.40
2019-03-15T14:33:36.396Z,71.70
2019-03-15T14:38:39.927Z,73.40
2019-03-15T14:49:11.116Z,75.90
2019-03-15T14:54:15.343Z,76.50
2019-03-15T14:59:18.773Z,76.80
2019-03-15T15:04:22.551Z,76.00
2019-03-15T15:09:26.037Z,76.50
2019-03-15T15:14:31.228Z,76.80
2019-03-15T15:19:34.609Z,77.50
2019-03-15T15:24:39.994Z,78.00
2019-03-15T15:35:01.326Z,79.30
2019-03-15T15:45:36.654Z,80.30
2019-03-15T15:50:47.349Z,79.20
2019-03-15T15:55:54.305Z,79.50
2019-03-15T16:00:57.369Z,80.20
2019-03-15T16:06:01.544Z,80.40
2019-03-15T16:11:05.582Z,80.80
2019-03-15T16:16:09.015Z,81.60
2019-03-15T16:21:14.085Z,82.20
2019-03-15T16:26:17.682Z,82.40
2019-03-15T16:37:02.594Z,82.60
2019-03-15T16:47:31.758Z,83.30
2019-03-15T16:52:35.981Z,83.90
2019-03-15T16:57:46.258Z,84.20
2019-03-15T17:03:03.243Z,84.80
2019-03-15T17:13:35.285Z,84.70
2019-03-15T17:18:38.733Z,84.20
2019-03-15T17:23:51.302Z,84.10
2019-03-15T17:28:58.803Z,84.00
2019-03-15T17:34:02.631Z,83.80
2019-03-15T17:39:16.261Z,83.50
2019-03-15T17:44:21.309Z,83.30
2019-03-15T17:49:28.685Z,83.30
2019-03-15T17:54:41.051Z,83.20
2019-03-15T18:05:26.384Z,83.00
2019-03-15T18:16:19.283Z,83.40
2019-03-15T18:26:57.654Z,83.60
2019-03-15T18:32:09.822Z,83.70
2019-03-15T18:37:18.737Z,84.10
2019-03-15T18:42:27.729Z,84.50
2019-03-15T18:47:33.803Z,84.90
2019-03-15T18:58:13.145Z,85.40
2019-03-15T19:03:29.531Z,85.50
2019-03-15T19:08:40.318Z,85.90
2019-03-15T19:13:44.447Z,86.30
2019-03-15T19:18:54.773Z,86.60
2019-03-15T19:23:58.987Z,86.90
2019-03-15T19:29:04.270Z,87.20
2019-03-15T19:34:19.478Z,87.20
2019-03-15T19:39:26.742Z,87.10
2019-03-15T19:44:33.318Z,87.20
2019-03-15T19:49:41.114Z,86.70
2019-03-15T20:00:07.716Z,86.50
2019-03-15T20:05:08.137Z,86.60
2019-03-15T20:10:27.314Z,86.40
2019-03-15T20:31:52.113Z,86.80
2019-03-15T20:42:32.758Z,87.90
2019-03-15T20:47:50.275Z,88.00
2019-03-15T21:03:40.176Z,89.10
2019-03-15T21:14:10.847Z,89.20
2019-03-15T21:24:57.256Z,88.60
2019-03-15T21:30:11.726Z,88.20
2019-03-15T21:35:17.078Z,88.10
2019-03-15T21:56:56.029Z,88.60
2019-03-15T22:01:59.499Z,88.60
2019-03-15T22:07:07.259Z,88.60
2019-03-15T22:12:12.849Z,88.90
2019-03-15T22:17:20.572Z,89.60
2019-03-15T22:22:26.361Z,89.80
2019-03-15T22:27:33.339Z,89.60
2019-03-15T22:32:36.745Z,89.40
2019-03-15T22:38:01.206Z,89.20
2019-03-15T22:43:04.571Z,89.70
2019-03-15T22:48:22.643Z,90.30
2019-03-15T22:53:26.900Z,90.30
2019-03-15T22:58:35.048Z,90.40
2019-03-15T23:03:47.703Z,90.40
2019-03-15T23:13:59.809Z,90.40
2019-03-15T23:19:14.423Z,90.60
2019-03-15T23:24:21.033Z,90.80
2019-03-15T23:29:27.316Z,90.90
2019-03-15T23:34:35.403Z,90.40
2019-03-15T23:39:40.278Z,89.80
2019-03-15T23:44:51.552Z,90.20
2019-03-15T23:49:59.519Z,90.40
2019-03-15T23:55:03.307Z,90.30
